sensor_id;sensor_type;location;lat;lon;timestamp;pressure;altitude;pressure_sealevel;temperature;humidity
48718;BME280;34521;33.042;-96.586;2023-12-22T00:00:38;100435.51;;;22.81;24.76
48718;BME280;34521;33.042;-96.586;2023-12-22T00:03:04;100431.66;;;23.42;24.45
48718;BME280;34521;33.042;-96.586;2023-12-22T00:05:28;100439.68;;;23.10;24.46
48718;BME280;34521;33.042;-96.586;2023-12-22T00:07:54;100442.02;;;21.87;25.65
48718;BME280;34521;33.042;-96.586;2023-12-22T00:10:19;100439.81;;;22.56;25.08
48718;BME280;34521;33.042;-96.586;2023-12-22T00:12:44;100437.48;;;23.27;24.36
48718;BME280;34521;33.042;-96.586;2023-12-22T00:15:11;100435.21;;;23.50;24.16
48718;BME280;34521;33.042;-96.586;2023-12-22T00:17:34;100433.19;;;23.46;24.23
48718;BME280;34521;33.042;-96.586;2023-12-22T00:19:59;100436.39;;;23.02;24.54
48718;BME280;34521;33.042;-96.586;2023-12-22T00:22:24;100430.73;;;23.14;24.37
48718;BME280;34521;33.042;-96.586;2023-12-22T00:24:51;100431.96;;;23.26;24.34
48718;BME280;34521;33.042;-96.586;2023-12-22T00:27:16;100432.95;;;22.76;24.76
48718;BME280;34521;33.042;-96.586;2023-12-22T00:29:39;100432.62;;;22.55;24.95
48718;BME280;34521;33.042;-96.586;2023-12-22T00:32:06;100431.76;;;22.88;24.62
48718;BME280;34521;33.042;-96.586;2023-12-22T00:34:29;100435.23;;;22.29;25.25
48718;BME280;34521;33.042;-96.586;2023-12-22T00:36:54;100438.19;;;22.58;25.22
48718;BME280;34521;33.042;-96.586;2023-12-22T00:39:21;100437.76;;;21.87;25.71
48718;BME280;34521;33.042;-96.586;2023-12-22T00:41:45;100443.43;;;20.13;28.86
48718;BME280;34521;33.042;-96.586;2023-12-22T00:44:12;100447.71;;;20.08;29.31
48718;BME280;34521;33.042;-96.586;2023-12-22T00:46:35;100445.37;;;19.42;30.42
48718;BME280;34521;33.042;-96.586;2023-12-22T00:49:00;100437.82;;;21.26;27.72
48718;BME280;34521;33.042;-96.586;2023-12-22T00:51:26;100437.16;;;22.34;26.19
48718;BME280;34521;33.042;-96.586;2023-12-22T00:53:50;100438.10;;;22.01;26.03
48718;BME280;34521;33.042;-96.586;2023-12-22T00:56:17;100440.44;;;22.24;25.67
48718;BME280;34521;33.042;-96.586;2023-12-22T00:58:41;100443.10;;;22.46;25.30
48718;BME280;34521;33.042;-96.586;2023-12-22T01:01:06;100441.83;;;22.06;25.66
48718;BME280;34521;33.042;-96.586;2023-12-22T01:03:31;100440.93;;;21.75;26.19
48718;BME280;34521;33.042;-96.586;2023-12-22T01:05:56;100442.25;;;22.14;25.81
48718;BME280;34521;33.042;-96.586;2023-12-22T01:08:20;100442.87;;;21.51;26.12
48718;BME280;34521;33.042;-96.586;2023-12-22T01:10:46;100443.73;;;21.76;26.20
48718;BME280;34521;33.042;-96.586;2023-12-22T01:13:12;100446.20;;;22.31;25.66
48718;BME280;34521;33.042;-96.586;2023-12-22T01:15:36;100450.04;;;21.21;26.20
48718;BME280;34521;33.042;-96.586;2023-12-22T01:18:04;100455.51;;;21.29;26.33
48718;BME280;34521;33.042;-96.586;2023-12-22T01:20:27;100457.93;;;20.67;27.26
48718;BME280;34521;33.042;-96.586;2023-12-22T01:22:51;100463.66;;;21.06;26.92
48718;BME280;34521;33.042;-96.586;2023-12-22T01:25:17;100461.15;;;21.64;26.37
48718;BME280;34521;33.042;-96.586;2023-12-22T01:27:43;100460.11;;;22.73;25.04
48718;BME280;34521;33.042;-96.586;2023-12-22T01:30:09;100467.71;;;21.19;26.67
48718;BME280;34521;33.042;-96.586;2023-12-22T01:32:32;100477.51;;;18.88;30.11
48718;BME280;34521;33.042;-96.586;2023-12-22T01:34:58;100482.20;;;19.32;29.83
48718;BME280;34521;33.042;-96.586;2023-12-22T01:37:22;100485.89;;;20.80;28.01
48718;BME280;34521;33.042;-96.586;2023-12-22T01:39:47;100485.76;;;21.77;26.59
48718;BME280;34521;33.042;-96.586;2023-12-22T01:42:11;100489.19;;;22.16;26.15
48718;BME280;34521;33.042;-96.586;2023-12-22T01:44:37;100488.07;;;21.67;27.17
48718;BME280;34521;33.042;-96.586;2023-12-22T01:47:03;100482.64;;;21.97;26.97
48718;BME280;34521;33.042;-96.586;2023-12-22T01:49:27;100480.07;;;22.48;26.26
48718;BME280;34521;33.042;-96.586;2023-12-22T01:51:54;100482.97;;;22.02;26.20
48718;BME280;34521;33.042;-96.586;2023-12-22T01:54:20;100485.56;;;22.32;25.67
48718;BME280;34521;33.042;-96.586;2023-12-22T01:56:43;100481.26;;;22.99;25.10
48718;BME280;34521;33.042;-96.586;2023-12-22T01:59:11;100484.14;;;22.27;25.63
48718;BME280;34521;33.042;-96.586;2023-12-22T02:01:34;100483.35;;;23.13;24.59
48718;BME280;34521;33.042;-96.586;2023-12-22T02:04:00;100485.96;;;22.54;25.30
48718;BME280;34521;33.042;-96.586;2023-12-22T02:06:26;100481.48;;;23.08;24.74
48718;BME280;34521;33.042;-96.586;2023-12-22T02:08:50;100485.35;;;22.32;25.41
48718;BME280;34521;33.042;-96.586;2023-12-22T02:11:15;100482.50;;;21.85;25.93
48718;BME280;34521;33.042;-96.586;2023-12-22T02:13:43;100480.74;;;22.08;25.85
48718;BME280;34521;33.042;-96.586;2023-12-22T02:16:11;100483.41;;;22.74;25.16
48718;BME280;34521;33.042;-96.586;2023-12-22T02:18:35;100480.19;;;21.76;25.82
48718;BME280;34521;33.042;-96.586;2023-12-22T02:20:56;100480.10;;;21.78;25.91
48718;BME280;34521;33.042;-96.586;2023-12-22T02:23:21;100482.62;;;22.29;25.51
48718;BME280;34521;33.042;-96.586;2023-12-22T02:25:47;100479.57;;;23.01;24.76
48718;BME280;34521;33.042;-96.586;2023-12-22T02:28:17;100484.45;;;21.21;26.46
48718;BME280;34521;33.042;-96.586;2023-12-22T02:30:43;100485.31;;;21.39;25.99
48718;BME280;34521;33.042;-96.586;2023-12-22T02:33:06;100486.40;;;21.43;26.10
48718;BME280;34521;33.042;-96.586;2023-12-22T02:35:32;100493.97;;;19.07;29.27
48718;BME280;34521;33.042;-96.586;2023-12-22T02:37:53;100491.37;;;19.18;30.05
48718;BME280;34521;33.042;-96.586;2023-12-22T02:40:17;100490.71;;;19.53;30.23
48718;BME280;34521;33.042;-96.586;2023-12-22T02:42:43;100490.05;;;20.49;28.99
48718;BME280;34521;33.042;-96.586;2023-12-22T02:45:14;100485.08;;;21.13;27.73
48718;BME280;34521;33.042;-96.586;2023-12-22T02:47:35;100476.19;;;22.07;26.32
48718;BME280;34521;33.042;-96.586;2023-12-22T02:50:00;100474.13;;;21.14;26.68
48718;BME280;34521;33.042;-96.586;2023-12-22T02:52:25;100472.20;;;21.11;26.93
48718;BME280;34521;33.042;-96.586;2023-12-22T02:54:53;100467.57;;;21.95;26.01
48718;BME280;34521;33.042;-96.586;2023-12-22T02:57:16;100468.21;;;21.87;26.12
48718;BME280;34521;33.042;-96.586;2023-12-22T02:59:40;100472.03;;;22.64;25.29
48718;BME280;34521;33.042;-96.586;2023-12-22T03:02:05;100470.12;;;22.77;25.20
48718;BME280;34521;33.042;-96.586;2023-12-22T03:04:32;100470.96;;;22.27;25.41
48718;BME280;34521;33.042;-96.586;2023-12-22T03:06:58;100472.47;;;22.85;24.86
48718;BME280;34521;33.042;-96.586;2023-12-22T03:09:23;100472.10;;;23.16;24.54
48718;BME280;34521;33.042;-96.586;2023-12-22T03:11:49;100473.41;;;23.12;24.74
48718;BME280;34521;33.042;-96.586;2023-12-22T03:14:13;100470.83;;;23.52;23.89
48718;BME280;34521;33.042;-96.586;2023-12-22T03:16:40;100468.96;;;23.70;24.01
48718;BME280;34521;33.042;-96.586;2023-12-22T03:19:05;100471.28;;;22.06;25.34
48718;BME280;34521;33.042;-96.586;2023-12-22T03:21:30;100463.01;;;23.07;24.86
48718;BME280;34521;33.042;-96.586;2023-12-22T03:23:57;100461.34;;;22.42;25.33
48718;BME280;34521;33.042;-96.586;2023-12-22T03:26:22;100456.77;;;22.51;24.94
48718;BME280;34521;33.042;-96.586;2023-12-22T03:28:46;100456.10;;;22.14;25.54
48718;BME280;34521;33.042;-96.586;2023-12-22T03:31:13;100460.42;;;21.63;25.99
48718;BME280;34521;33.042;-96.586;2023-12-22T03:33:38;100464.36;;;21.70;26.01
48718;BME280;34521;33.042;-96.586;2023-12-22T03:36:02;100467.02;;;21.78;25.98
48718;BME280;34521;33.042;-96.586;2023-12-22T03:38:29;100478.12;;;20.07;28.86
48718;BME280;34521;33.042;-96.586;2023-12-22T03:40:55;100479.20;;;19.62;29.87
48718;BME280;34521;33.042;-96.586;2023-12-22T03:43:19;100473.80;;;19.32;30.65
48718;BME280;34521;33.042;-96.586;2023-12-22T03:45:45;100474.88;;;20.27;29.08
48718;BME280;34521;33.042;-96.586;2023-12-22T03:48:11;100468.78;;;21.35;27.24
48718;BME280;34521;33.042;-96.586;2023-12-22T03:50:37;100470.72;;;22.38;26.06
48718;BME280;34521;33.042;-96.586;2023-12-22T03:53:02;100472.94;;;21.09;26.77
48718;BME280;34521;33.042;-96.586;2023-12-22T03:55:28;100470.58;;;21.82;26.30
48718;BME280;34521;33.042;-96.586;2023-12-22T03:57:54;100469.56;;;22.68;25.42
48718;BME280;34521;33.042;-96.586;2023-12-22T04:00:20;100466.63;;;22.41;25.67
48718;BME280;34521;33.042;-96.586;2023-12-22T04:02:45;100462.97;;;21.67;26.04
48718;BME280;34521;33.042;-96.586;2023-12-22T04:05:11;100462.10;;;22.14;25.64
48718;BME280;34521;33.042;-96.586;2023-12-22T04:07:33;100458.56;;;22.93;24.53
48718;BME280;34521;33.042;-96.586;2023-12-22T04:09:58;100460.89;;;22.61;25.28
48718;BME280;34521;33.042;-96.586;2023-12-22T04:12:24;100455.21;;;22.71;24.79
48718;BME280;34521;33.042;-96.586;2023-12-22T04:14:49;100455.53;;;23.04;24.74
48718;BME280;34521;33.042;-96.586;2023-12-22T04:17:16;100456.65;;;23.49;24.24
48718;BME280;34521;33.042;-96.586;2023-12-22T04:19:41;100464.01;;;22.93;24.49
48718;BME280;34521;33.042;-96.586;2023-12-22T04:22:06;100466.14;;;23.36;24.21
48718;BME280;34521;33.042;-96.586;2023-12-22T04:24:31;100468.03;;;22.20;25.32
48718;BME280;34521;33.042;-96.586;2023-12-22T04:26:57;100469.43;;;22.11;25.47
48718;BME280;34521;33.042;-96.586;2023-12-22T04:29:23;100464.05;;;21.41;26.17
48718;BME280;34521;33.042;-96.586;2023-12-22T04:31:49;100465.58;;;20.74;26.76
48718;BME280;34521;33.042;-96.586;2023-12-22T04:34:15;100466.80;;;19.89;28.89
48718;BME280;34521;33.042;-96.586;2023-12-22T04:36:38;100466.45;;;19.69;29.51
48718;BME280;34521;33.042;-96.586;2023-12-22T04:39:04;100462.06;;;19.18;30.54
48718;BME280;34521;33.042;-96.586;2023-12-22T04:41:29;100468.41;;;20.48;28.71
48718;BME280;34521;33.042;-96.586;2023-12-22T04:43:54;100464.78;;;21.73;27.14
48718;BME280;34521;33.042;-96.586;2023-12-22T04:46:19;100465.04;;;22.15;25.88
48718;BME280;34521;33.042;-96.586;2023-12-22T04:48:46;100465.95;;;21.44;26.65
48718;BME280;34521;33.042;-96.586;2023-12-22T04:51:11;100463.40;;;21.62;26.49
48718;BME280;34521;33.042;-96.586;2023-12-22T04:53:36;100461.57;;;22.05;26.14
48718;BME280;34521;33.042;-96.586;2023-12-22T04:56:01;100462.24;;;22.14;25.73
48718;BME280;34521;33.042;-96.586;2023-12-22T04:58:27;100463.82;;;21.53;26.28
48718;BME280;34521;33.042;-96.586;2023-12-22T05:00:53;100460.30;;;22.61;25.15
48718;BME280;34521;33.042;-96.586;2023-12-22T05:03:19;100458.61;;;23.13;24.96
48718;BME280;34521;33.042;-96.586;2023-12-22T05:05:45;100455.61;;;22.67;25.03
48718;BME280;34521;33.042;-96.586;2023-12-22T05:08:11;100453.92;;;23.09;24.74
48718;BME280;34521;33.042;-96.586;2023-12-22T05:10:35;100454.16;;;23.22;24.64
48718;BME280;34521;33.042;-96.586;2023-12-22T05:13:01;100454.70;;;23.06;24.91
48718;BME280;34521;33.042;-96.586;2023-12-22T05:15:25;100455.93;;;22.93;24.76
48718;BME280;34521;33.042;-96.586;2023-12-22T05:17:50;100456.15;;;22.02;25.34
48718;BME280;34521;33.042;-96.586;2023-12-22T05:20:16;100448.88;;;22.39;25.28
48718;BME280;34521;33.042;-96.586;2023-12-22T05:22:43;100448.68;;;21.95;25.67
48718;BME280;34521;33.042;-96.586;2023-12-22T05:25:10;100443.40;;;22.18;25.65
48718;BME280;34521;33.042;-96.586;2023-12-22T05:27:33;100443.82;;;22.17;25.45
48718;BME280;34521;33.042;-96.586;2023-12-22T05:29:59;100441.43;;;22.02;25.47
48718;BME280;34521;33.042;-96.586;2023-12-22T05:32:25;100442.03;;;21.66;25.75
48718;BME280;34521;33.042;-96.586;2023-12-22T05:34:50;100445.94;;;19.75;29.29
48718;BME280;34521;33.042;-96.586;2023-12-22T05:37:15;100443.61;;;18.99;30.40
48718;BME280;34521;33.042;-96.586;2023-12-22T05:39:41;100438.59;;;19.75;30.29
48718;BME280;34521;33.042;-96.586;2023-12-22T05:42:06;100433.92;;;20.48;28.65
48718;BME280;34521;33.042;-96.586;2023-12-22T05:44:34;100427.33;;;21.50;27.37
48718;BME280;34521;33.042;-96.586;2023-12-22T05:46:57;100429.88;;;22.33;26.05
48718;BME280;34521;33.042;-96.586;2023-12-22T05:49:24;100430.56;;;21.56;26.70
48718;BME280;34521;33.042;-96.586;2023-12-22T05:51:48;100422.36;;;21.76;26.28
48718;BME280;34521;33.042;-96.586;2023-12-22T05:54:14;100420.99;;;21.81;26.14
48718;BME280;34521;33.042;-96.586;2023-12-22T05:56:39;100416.77;;;21.78;26.38
48718;BME280;34521;33.042;-96.586;2023-12-22T05:59:07;100415.10;;;22.10;26.02
48718;BME280;34521;33.042;-96.586;2023-12-22T06:01:32;100417.13;;;22.38;25.51
48718;BME280;34521;33.042;-96.586;2023-12-22T06:03:58;100413.21;;;22.87;25.25
48718;BME280;34521;33.042;-96.586;2023-12-22T06:06:22;100409.25;;;22.99;24.90
48718;BME280;34521;33.042;-96.586;2023-12-22T06:08:49;100409.42;;;23.36;24.54
48718;BME280;34521;33.042;-96.586;2023-12-22T06:11:14;100408.96;;;22.91;24.87
48718;BME280;34521;33.042;-96.586;2023-12-22T06:13:40;100402.20;;;22.98;24.84
48718;BME280;34521;33.042;-96.586;2023-12-22T06:16:04;100402.94;;;22.30;25.69
48718;BME280;34521;33.042;-96.586;2023-12-22T06:18:29;100397.11;;;22.65;25.20
48718;BME280;34521;33.042;-96.586;2023-12-22T06:20:56;100397.41;;;22.23;25.80
48718;BME280;34521;33.042;-96.586;2023-12-22T06:23:20;100395.25;;;22.08;25.84
48718;BME280;34521;33.042;-96.586;2023-12-22T06:25:44;100393.05;;;21.98;25.65
48718;BME280;34521;33.042;-96.586;2023-12-22T06:28:11;100398.03;;;21.17;26.61
48718;BME280;34521;33.042;-96.586;2023-12-22T06:30:35;100398.38;;;21.99;25.67
48718;BME280;34521;33.042;-96.586;2023-12-22T06:33:00;100400.03;;;22.26;25.43
48718;BME280;34521;33.042;-96.586;2023-12-22T06:35:25;100403.22;;;19.65;29.25
48718;BME280;34521;33.042;-96.586;2023-12-22T06:37:51;100397.96;;;19.41;29.73
48718;BME280;34521;33.042;-96.586;2023-12-22T06:40:16;100387.49;;;20.49;28.50
48718;BME280;34521;33.042;-96.586;2023-12-22T06:42:41;100382.78;;;22.00;26.53
48718;BME280;34521;33.042;-96.586;2023-12-22T06:45:09;100374.20;;;22.27;25.89
48718;BME280;34521;33.042;-96.586;2023-12-22T06:47:35;100372.68;;;21.10;26.85
48718;BME280;34521;33.042;-96.586;2023-12-22T06:49:59;100362.37;;;21.76;26.38
48718;BME280;34521;33.042;-96.586;2023-12-22T06:52:23;100357.03;;;21.73;26.42
48718;BME280;34521;33.042;-96.586;2023-12-22T06:54:49;100350.66;;;21.91;26.23
48718;BME280;34521;33.042;-96.586;2023-12-22T06:57:15;100342.26;;;22.45;25.48
48718;BME280;34521;33.042;-96.586;2023-12-22T06:59:40;100338.43;;;22.52;25.32
48718;BME280;34521;33.042;-96.586;2023-12-22T07:02:05;100339.59;;;22.57;25.22
48718;BME280;34521;33.042;-96.586;2023-12-22T07:04:37;100339.87;;;22.87;24.99
48718;BME280;34521;33.042;-96.586;2023-12-22T07:06:55;100340.32;;;22.12;25.47
48718;BME280;34521;33.042;-96.586;2023-12-22T07:09:32;100342.90;;;22.78;25.10
48718;BME280;34521;33.042;-96.586;2023-12-22T07:11:48;100339.21;;;22.54;25.22
48718;BME280;34521;33.042;-96.586;2023-12-22T07:14:11;100342.23;;;23.16;24.88
48718;BME280;34521;33.042;-96.586;2023-12-22T07:16:37;100344.75;;;21.93;25.79
48718;BME280;34521;33.042;-96.586;2023-12-22T07:19:03;100346.37;;;22.55;25.54
48718;BME280;34521;33.042;-96.586;2023-12-22T07:21:30;100339.73;;;22.49;25.28
48718;BME280;34521;33.042;-96.586;2023-12-22T07:23:53;100339.22;;;22.70;25.25
48718;BME280;34521;33.042;-96.586;2023-12-22T07:26:17;100337.97;;;22.97;25.10
48718;BME280;34521;33.042;-96.586;2023-12-22T07:28:43;100348.53;;;19.07;30.13
48718;BME280;34521;33.042;-96.586;2023-12-22T07:31:08;100341.39;;;19.89;29.78
48718;BME280;34521;33.042;-96.586;2023-12-22T07:33:35;100334.04;;;20.70;28.35
48718;BME280;34521;33.042;-96.586;2023-12-22T07:35:59;100325.14;;;21.90;26.71
48718;BME280;34521;33.042;-96.586;2023-12-22T07:38:27;100320.26;;;22.62;26.52
48718;BME280;34521;33.042;-96.586;2023-12-22T07:40:49;100318.01;;;22.46;26.34
48718;BME280;34521;33.042;-96.586;2023-12-22T07:43:16;100319.94;;;22.24;26.01
48718;BME280;34521;33.042;-96.586;2023-12-22T07:45:42;100316.74;;;22.62;25.80
48718;BME280;34521;33.042;-96.586;2023-12-22T07:48:09;100312.95;;;22.70;25.74
48718;BME280;34521;33.042;-96.586;2023-12-22T07:50:33;100315.32;;;22.47;25.71
48718;BME280;34521;33.042;-96.586;2023-12-22T07:52:57;100316.20;;;22.91;25.23
48718;BME280;34521;33.042;-96.586;2023-12-22T07:55:24;100315.63;;;22.74;25.11
48718;BME280;34521;33.042;-96.586;2023-12-22T07:57:48;100319.69;;;21.91;25.93
48718;BME280;34521;33.042;-96.586;2023-12-22T08:00:15;100322.58;;;22.86;25.26
48718;BME280;34521;33.042;-96.586;2023-12-22T08:02:40;100321.16;;;22.50;25.79
48718;BME280;34521;33.042;-96.586;2023-12-22T08:05:07;100322.01;;;22.62;25.44
48718;BME280;34521;33.042;-96.586;2023-12-22T08:07:32;100323.83;;;22.90;25.15
48718;BME280;34521;33.042;-96.586;2023-12-22T08:09:58;100328.00;;;22.20;25.77
48718;BME280;34521;33.042;-96.586;2023-12-22T08:12:24;100334.57;;;22.10;25.79
48718;BME280;34521;33.042;-96.586;2023-12-22T08:14:49;100331.04;;;21.97;26.19
48718;BME280;34521;33.042;-96.586;2023-12-22T08:17:15;100334.04;;;22.37;25.74
48718;BME280;34521;33.042;-96.586;2023-12-22T08:19:40;100339.91;;;21.26;26.71
48718;BME280;34521;33.042;-96.586;2023-12-22T08:22:05;100335.39;;;22.50;25.63
48718;BME280;34521;33.042;-96.586;2023-12-22T08:24:31;100338.38;;;21.33;26.45
48718;BME280;34521;33.042;-96.586;2023-12-22T08:26:56;100335.50;;;21.47;26.35
48718;BME280;34521;33.042;-96.586;2023-12-22T08:29:22;100342.40;;;19.12;30.12
48718;BME280;34521;33.042;-96.586;2023-12-22T08:31:47;100346.01;;;19.48;29.98
48718;BME280;34521;33.042;-96.586;2023-12-22T08:34:12;100344.23;;;20.40;28.75
48718;BME280;34521;33.042;-96.586;2023-12-22T08:36:38;100340.46;;;22.05;26.80
48718;BME280;34521;33.042;-96.586;2023-12-22T08:39:03;100334.42;;;22.14;26.35
48718;BME280;34521;33.042;-96.586;2023-12-22T08:41:28;100334.19;;;22.19;26.04
48718;BME280;34521;33.042;-96.586;2023-12-22T08:43:54;100327.45;;;21.94;26.03
48718;BME280;34521;33.042;-96.586;2023-12-22T08:46:21;100326.13;;;21.72;26.27
48718;BME280;34521;33.042;-96.586;2023-12-22T08:48:45;100325.99;;;22.76;25.53
48718;BME280;34521;33.042;-96.586;2023-12-22T08:51:10;100322.35;;;22.91;25.35
48718;BME280;34521;33.042;-96.586;2023-12-22T08:53:35;100326.96;;;22.85;25.23
48718;BME280;34521;33.042;-96.586;2023-12-22T08:56:02;100328.07;;;22.87;25.12
48718;BME280;34521;33.042;-96.586;2023-12-22T08:58:28;100331.11;;;23.39;24.92
48718;BME280;34521;33.042;-96.586;2023-12-22T09:00:53;100330.83;;;23.00;25.03
48718;BME280;34521;33.042;-96.586;2023-12-22T09:03:18;100324.83;;;22.83;25.32
48718;BME280;34521;33.042;-96.586;2023-12-22T09:05:44;100319.50;;;23.36;24.98
48718;BME280;34521;33.042;-96.586;2023-12-22T09:08:11;100314.13;;;22.30;25.66
48718;BME280;34521;33.042;-96.586;2023-12-22T09:10:34;100315.19;;;22.12;25.82
48718;BME280;34521;33.042;-96.586;2023-12-22T09:13:00;100317.83;;;21.15;27.01
48718;BME280;34521;33.042;-96.586;2023-12-22T09:15:25;100312.04;;;22.06;26.09
48718;BME280;34521;33.042;-96.586;2023-12-22T09:17:52;100305.45;;;21.32;26.60
48718;BME280;34521;33.042;-96.586;2023-12-22T09:20:16;100301.98;;;22.00;26.18
48718;BME280;34521;33.042;-96.586;2023-12-22T09:22:42;100299.31;;;22.12;26.02
48718;BME280;34521;33.042;-96.586;2023-12-22T09:25:07;100291.68;;;21.94;26.18
48718;BME280;34521;33.042;-96.586;2023-12-22T09:27:32;100292.66;;;21.76;26.26
48718;BME280;34521;33.042;-96.586;2023-12-22T09:29:59;100300.43;;;18.80;30.54
48718;BME280;34521;33.042;-96.586;2023-12-22T09:32:22;100292.67;;;20.53;28.24
48718;BME280;34521;33.042;-96.586;2023-12-22T09:34:49;100292.01;;;21.79;26.48
48718;BME280;34521;33.042;-96.586;2023-12-22T09:37:14;100287.01;;;22.34;26.03
48718;BME280;34521;33.042;-96.586;2023-12-22T09:39:39;100288.56;;;22.05;26.27
48718;BME280;34521;33.042;-96.586;2023-12-22T09:42:05;100285.45;;;21.94;26.27
48718;BME280;34521;33.042;-96.586;2023-12-22T09:44:33;100284.73;;;22.15;26.00
48718;BME280;34521;33.042;-96.586;2023-12-22T09:46:56;100283.64;;;22.18;26.13
48718;BME280;34521;33.042;-96.586;2023-12-22T09:49:22;100287.89;;;23.14;25.30
48718;BME280;34521;33.042;-96.586;2023-12-22T09:51:47;100284.65;;;23.06;25.16
48718;BME280;34521;33.042;-96.586;2023-12-22T09:54:13;100280.16;;;22.92;25.52
48718;BME280;34521;33.042;-96.586;2023-12-22T09:56:38;100281.22;;;22.90;25.43
48718;BME280;34521;33.042;-96.586;2023-12-22T09:59:03;100277.46;;;23.01;25.09
48718;BME280;34521;33.042;-96.586;2023-12-22T10:01:31;100278.97;;;23.40;24.89
48718;BME280;34521;33.042;-96.586;2023-12-22T10:03:54;100282.26;;;22.54;25.72
48718;BME280;34521;33.042;-96.586;2023-12-22T10:06:21;100280.15;;;21.46;26.48
48718;BME280;34521;33.042;-96.586;2023-12-22T10:08:45;100272.12;;;22.66;25.38
48718;BME280;34521;33.042;-96.586;2023-12-22T10:11:10;100267.66;;;22.69;25.55
48718;BME280;34521;33.042;-96.586;2023-12-22T10:13:38;100268.39;;;21.41;26.46
48718;BME280;34521;33.042;-96.586;2023-12-22T10:16:01;100270.71;;;21.29;26.59
48718;BME280;34521;33.042;-96.586;2023-12-22T10:18:26;100273.40;;;22.16;25.99
48718;BME280;34521;33.042;-96.586;2023-12-22T10:20:51;100287.86;;;21.06;27.06
48718;BME280;34521;33.042;-96.586;2023-12-22T10:23:17;100288.81;;;19.05;30.46
48718;BME280;34521;33.042;-96.586;2023-12-22T10:25:41;100285.38;;;19.75;30.46
48718;BME280;34521;33.042;-96.586;2023-12-22T10:28:11;100282.17;;;20.21;29.74
48718;BME280;34521;33.042;-96.586;2023-12-22T10:30:35;100281.54;;;21.05;28.14
48718;BME280;34521;33.042;-96.586;2023-12-22T10:33:00;100279.34;;;22.16;26.59
48718;BME280;34521;33.042;-96.586;2023-12-22T10:35:25;100284.55;;;22.17;27.68
48718;BME280;34521;33.042;-96.586;2023-12-22T10:37:50;100282.27;;;21.90;27.47
48718;BME280;34521;33.042;-96.586;2023-12-22T10:40:16;100268.92;;;22.39;26.68
48718;BME280;34521;33.042;-96.586;2023-12-22T10:42:41;100271.59;;;22.27;26.34
48718;BME280;34521;33.042;-96.586;2023-12-22T10:45:06;100266.57;;;21.86;26.58
48718;BME280;34521;33.042;-96.586;2023-12-22T10:47:31;100262.22;;;21.97;26.61
48718;BME280;34521;33.042;-96.586;2023-12-22T10:50:01;100266.94;;;22.83;25.63
48718;BME280;34521;33.042;-96.586;2023-12-22T10:52:24;100263.95;;;22.36;26.08
48718;BME280;34521;33.042;-96.586;2023-12-22T10:54:49;100261.92;;;22.76;25.58
48718;BME280;34521;33.042;-96.586;2023-12-22T10:57:17;100261.66;;;22.50;25.81
48718;BME280;34521;33.042;-96.586;2023-12-22T10:59:47;100263.33;;;22.77;25.61
48718;BME280;34521;33.042;-96.586;2023-12-22T11:02:08;100263.66;;;22.33;25.89
48718;BME280;34521;33.042;-96.586;2023-12-22T11:04:31;100265.07;;;21.53;26.63
48718;BME280;34521;33.042;-96.586;2023-12-22T11:06:58;100264.90;;;22.54;25.91
48718;BME280;34521;33.042;-96.586;2023-12-22T11:09:23;100264.96;;;22.21;25.92
48718;BME280;34521;33.042;-96.586;2023-12-22T11:11:49;100261.73;;;21.87;26.45
48718;BME280;34521;33.042;-96.586;2023-12-22T11:14:14;100266.69;;;21.37;26.74
48718;BME280;34521;33.042;-96.586;2023-12-22T11:16:39;100265.11;;;21.48;26.87
48718;BME280;34521;33.042;-96.586;2023-12-22T11:19:04;100265.84;;;21.56;26.70
48718;BME280;34521;33.042;-96.586;2023-12-22T11:21:29;100267.22;;;21.39;26.66
48718;BME280;34521;33.042;-96.586;2023-12-22T11:23:54;100270.60;;;21.26;26.95
48718;BME280;34521;33.042;-96.586;2023-12-22T11:26:20;100276.98;;;18.79;30.82
48718;BME280;34521;33.042;-96.586;2023-12-22T11:28:47;100276.48;;;19.36;30.81
48718;BME280;34521;33.042;-96.586;2023-12-22T11:31:11;100274.06;;;19.94;29.51
48718;BME280;34521;33.042;-96.586;2023-12-22T11:33:36;100270.54;;;21.52;27.44
48718;BME280;34521;33.042;-96.586;2023-12-22T11:36:02;100272.08;;;22.13;26.93
48718;BME280;34521;33.042;-96.586;2023-12-22T11:38:26;100277.29;;;22.40;26.18
48718;BME280;34521;33.042;-96.586;2023-12-22T11:40:52;100281.90;;;21.88;26.68
48718;BME280;34521;33.042;-96.586;2023-12-22T11:43:17;100276.06;;;22.40;26.13
48718;BME280;34521;33.042;-96.586;2023-12-22T11:45:43;100275.78;;;22.17;26.25
48718;BME280;34521;33.042;-96.586;2023-12-22T11:48:08;100277.67;;;22.96;25.42
48718;BME280;34521;33.042;-96.586;2023-12-22T11:50:32;100276.88;;;22.45;25.91
48718;BME280;34521;33.042;-96.586;2023-12-22T11:57:50;100279.47;;;23.05;25.18
48718;BME280;34521;33.042;-96.586;2023-12-22T12:02:40;100282.53;;;22.56;25.41
48718;BME280;34521;33.042;-96.586;2023-12-22T12:05:08;100281.95;;;22.38;25.82
48718;BME280;34521;33.042;-96.586;2023-12-22T12:07:40;100280.96;;;22.11;26.06
48718;BME280;34521;33.042;-96.586;2023-12-22T12:09:57;100283.86;;;22.34;25.86
48718;BME280;34521;33.042;-96.586;2023-12-22T12:12:24;100285.17;;;21.81;26.64
48718;BME280;34521;33.042;-96.586;2023-12-22T12:14:51;100287.77;;;21.54;26.68
48718;BME280;34521;33.042;-96.586;2023-12-22T12:17:16;100286.89;;;22.46;25.76
48718;BME280;34521;33.042;-96.586;2023-12-22T12:19:39;100283.25;;;21.84;26.26
48718;BME280;34521;33.042;-96.586;2023-12-22T12:22:07;100284.04;;;22.21;25.96
48718;BME280;34521;33.042;-96.586;2023-12-22T12:24:30;100283.00;;;21.92;26.55
48718;BME280;34521;33.042;-96.586;2023-12-22T12:26:55;100292.53;;;20.06;29.72